createdAt,value
2023-01-23T00:01:48.305Z,1.52
2023-01-23T00:04:19.427Z,1.33
2023-01-23T00:06:51.557Z,1.63
2023-01-23T00:09:22.583Z,1.50
2023-01-23T00:11:52.356Z,1.50
2023-01-23T00:14:22.784Z,1.48
2023-01-23T00:16:51.645Z,2.17
2023-01-23T00:19:19.493Z,1.52
2023-01-23T00:21:54.858Z,1.70
2023-01-23T00:24:22.913Z,1.70
2023-01-23T00:26:53.616Z,1.80
2023-01-23T00:29:24.831Z,1.42
2023-01-23T00:31:52.931Z,1.40
2023-01-23T00:34:23.932Z,1.75
2023-01-23T00:36:54.052Z,1.20
2023-01-23T00:39:28.205Z,1.55
2023-01-23T00:42:05.548Z,1.17
2023-01-23T00:44:33.787Z,1.15
2023-01-23T00:47:01.847Z,1.50
2023-01-23T00:49:30.776Z,1.77
2023-01-23T00:52:02.401Z,1.33
2023-01-23T00:54:30.320Z,1.60
2023-01-23T00:56:59.868Z,1.75
2023-01-23T00:59:28.214Z,1.67
2023-01-23T01:01:56.227Z,1.88
2023-01-23T01:04:25.813Z,1.92
2023-01-23T01:06:54.531Z,2.35
2023-01-23T01:09:25.043Z,2.33
2023-01-23T01:11:52.965Z,1.90
2023-01-23T01:14:22.460Z,1.63
2023-01-23T01:16:50.408Z,1.25
2023-01-23T01:19:19.214Z,1.20
2023-01-23T01:21:47.032Z,1.77
2023-01-23T01:24:14.980Z,1.67
2023-01-23T01:26:42.940Z,2.08
2023-01-23T01:29:12.376Z,1.45
2023-01-23T01:31:45.252Z,2.08
2023-01-23T01:34:14.136Z,1.25
2023-01-23T01:36:42.097Z,0.95
2023-01-23T01:39:13.083Z,1.83
2023-01-23T01:41:45.510Z,2.13
2023-01-23T01:44:19.577Z,1.92
2023-01-23T01:46:49.774Z,1.60
2023-01-23T01:49:19.691Z,2.28
2023-01-23T01:51:52.862Z,1.30
2023-01-23T01:54:25.259Z,1.40
2023-01-23T01:56:55.521Z,1.77
2023-01-23T01:59:29.326Z,1.17
2023-01-23T02:02:05.430Z,1.73
2023-01-23T02:04:34.034Z,1.95
2023-01-23T02:07:04.565Z,1.38
2023-01-23T02:09:33.908Z,1.70
2023-01-23T02:12:03.740Z,1.38
2023-01-23T02:14:35.881Z,1.58
2023-01-23T02:17:09.921Z,1.42
2023-01-23T02:19:41.632Z,1.42
2023-01-23T02:22:15.231Z,1.23
2023-01-23T02:24:46.454Z,1.63
2023-01-23T02:27:16.125Z,2.00
2023-01-23T02:29:48.162Z,1.85
2023-01-23T02:32:16.869Z,1.58
2023-01-23T02:34:45.567Z,1.80
2023-01-23T02:37:14.597Z,2.13
2023-01-23T02:39:42.711Z,2.05
2023-01-23T02:42:12.857Z,1.90
2023-01-23T02:44:53.859Z,1.30
2023-01-23T02:47:25.790Z,1.38
2023-01-23T02:49:57.416Z,1.55
2023-01-23T02:52:25.616Z,1.58
2023-01-23T02:54:53.458Z,1.77
2023-01-23T02:57:21.181Z,2.00
2023-01-23T03:00:07.891Z,1.90
2023-01-23T03:02:38.207Z,2.15
2023-01-23T03:05:06.615Z,1.75
2023-01-23T03:07:34.370Z,1.55
2023-01-23T03:10:02.507Z,1.55
2023-01-23T03:12:30.558Z,2.15
2023-01-23T03:15:02.118Z,1.40
2023-01-23T03:17:30.542Z,1.50
2023-01-23T03:19:59.765Z,1.75
2023-01-23T03:22:28.097Z,1.25
2023-01-23T03:24:57.750Z,2.08
2023-01-23T03:27:28.264Z,1.67
2023-01-23T03:30:16.186Z,2.17
2023-01-23T03:32:47.503Z,2.63
2023-01-23T03:35:19.810Z,1.80
2023-01-23T03:37:49.682Z,1.80
2023-01-23T03:40:35.466Z,1.67
2023-01-23T03:43:04.786Z,1.83
2023-01-23T03:45:34.645Z,1.83
2023-01-23T03:48:05.782Z,1.77
2023-01-23T03:50:34.745Z,1.88
2023-01-23T03:53:04.111Z,1.60
2023-01-23T03:55:32.352Z,1.75
2023-01-23T03:58:01.922Z,1.92
2023-01-23T04:00:33.831Z,1.88
2023-01-23T04:03:07.681Z,1.92
2023-01-23T04:05:38.443Z,1.75
2023-01-23T04:08:10.266Z,1.70
2023-01-23T04:10:38.325Z,2.10
2023-01-23T04:13:13.232Z,1.35
2023-01-23T04:15:44.411Z,2.08
2023-01-23T04:18:16.187Z,2.00
2023-01-23T04:20:46.376Z,1.73
2023-01-23T04:23:15.466Z,1.40
2023-01-23T04:25:47.874Z,1.83
2023-01-23T04:28:19.752Z,1.80
2023-01-23T04:30:54.078Z,1.83
2023-01-23T04:33:31.429Z,2.35
2023-01-23T04:36:00.218Z,2.53
2023-01-23T04:38:31.830Z,1.52
2023-01-23T04:41:15.207Z,1.85
2023-01-23T04:43:43.169Z,1.85
2023-01-23T04:46:14.748Z,2.00
2023-01-23T04:49:16.732Z,1.90
2023-01-23T04:51:45.741Z,2.47
2023-01-23T04:54:14.751Z,1.73
2023-01-23T04:56:44.254Z,1.63
2023-01-23T04:59:12.051Z,1.60
2023-01-23T05:01:40.019Z,1.50
2023-01-23T05:04:08.172Z,1.50
2023-01-23T05:06:38.312Z,1.52
2023-01-23T05:09:07.695Z,2.13
2023-01-23T05:11:51.273Z,2.15
2023-01-23T05:14:20.885Z,1.80
2023-01-23T05:16:49.079Z,1.73
2023-01-23T05:19:27.415Z,1.95
2023-01-23T05:21:57.477Z,2.00
2023-01-23T05:24:29.085Z,1.80
2023-01-23T05:27:05.841Z,3.45
2023-01-23T05:29:39.125Z,1.75
2023-01-23T05:32:15.952Z,1.90
2023-01-23T05:34:45.232Z,2.10
2023-01-23T05:37:30.357Z,2.72
2023-01-23T05:40:02.089Z,2.10
2023-01-23T05:42:50.308Z,1.65
2023-01-23T05:45:37.034Z,1.90
2023-01-23T05:48:11.378Z,2.15
2023-01-23T05:50:39.374Z,2.28
2023-01-23T05:53:10.392Z,2.50
2023-01-23T05:55:39.389Z,2.45
2023-01-23T05:58:08.771Z,1.70
2023-01-23T06:00:56.992Z,1.67
2023-01-23T06:03:53.043Z,3.10
2023-01-23T06:09:23.243Z,2.20
2023-01-23T06:11:56.307Z,2.35
2023-01-23T06:14:24.538Z,2.47
2023-01-23T06:16:53.053Z,2.67
2023-01-23T06:19:24.702Z,2.22
2023-01-23T06:21:52.669Z,2.60
2023-01-23T06:24:22.678Z,2.70
2023-01-23T06:26:55.497Z,1.85
2023-01-23T06:29:25.498Z,3.30
2023-01-23T06:31:53.831Z,2.97
2023-01-23T06:34:24.320Z,1.90
2023-01-23T06:37:00.866Z,2.35
2023-01-23T06:39:31.232Z,2.72
2023-01-23T06:42:01.981Z,2.65
2023-01-23T06:44:30.436Z,2.67
2023-01-23T06:47:01.058Z,2.00
2023-01-23T06:49:34.110Z,1.83
2023-01-23T06:52:06.147Z,2.22
2023-01-23T06:54:36.985Z,2.40
2023-01-23T06:57:07.800Z,2.58
2023-01-23T06:59:38.688Z,3.50
2023-01-23T07:02:10.863Z,2.78
2023-01-23T07:04:45.869Z,3.38
2023-01-23T07:07:16.720Z,2.40
2023-01-23T07:09:50.930Z,2.45
2023-01-23T07:12:21.819Z,3.45
2023-01-23T07:14:52.209Z,2.20
2023-01-23T07:17:30.241Z,2.67
2023-01-23T07:20:01.333Z,2.55
2023-01-23T07:22:30.329Z,2.95
2023-01-23T07:25:00.798Z,2.35
2023-01-23T07:27:29.082Z,3.13
2023-01-23T07:29:57.276Z,2.05
2023-01-23T07:32:27.380Z,3.20
2023-01-23T07:34:57.541Z,2.97
2023-01-23T07:37:26.226Z,2.47
2023-01-23T07:39:58.006Z,2.60
2023-01-23T07:42:28.510Z,2.75
2023-01-23T07:44:56.745Z,2.22
2023-01-23T07:47:25.571Z,2.70
2023-01-23T07:49:53.682Z,3.00
2023-01-23T07:52:23.104Z,3.13
2023-01-23T07:54:51.357Z,3.03
2023-01-23T07:57:19.126Z,3.13
2023-01-23T07:59:51.210Z,3.00
2023-01-23T08:02:23.744Z,3.50
2023-01-23T08:04:53.410Z,3.05
2023-01-23T08:07:21.337Z,3.08
2023-01-23T08:09:49.222Z,2.80
2023-01-23T08:12:18.608Z,2.17
2023-01-23T08:14:46.764Z,2.97
2023-01-23T08:17:16.340Z,2.33
2023-01-23T08:19:44.302Z,2.25
2023-01-23T08:22:12.175Z,2.60
2023-01-23T08:24:40.198Z,2.75
2023-01-23T08:27:08.647Z,2.35
2023-01-23T08:29:36.575Z,2.38
2023-01-23T08:32:06.201Z,2.47
2023-01-23T08:34:35.746Z,2.50
2023-01-23T08:37:03.562Z,2.28
2023-01-23T08:39:31.639Z,2.30
2023-01-23T08:41:59.549Z,2.88
2023-01-23T08:44:27.634Z,2.47
2023-01-23T08:46:55.521Z,2.40
2023-01-23T08:49:23.569Z,2.03
2023-01-23T08:51:52.897Z,1.98
2023-01-23T08:54:20.955Z,3.55
2023-01-23T08:56:49.190Z,3.25
2023-01-23T08:59:17.019Z,3.65
2023-01-23T09:01:46.278Z,4.03
2023-01-23T09:04:14.347Z,2.30
2023-01-23T09:06:42.224Z,2.40
2023-01-23T09:09:12.076Z,2.78
2023-01-23T09:11:39.951Z,3.20
2023-01-23T09:14:07.817Z,1.33
2023-01-23T09:16:35.892Z,3.92
2023-01-23T09:19:03.845Z,3.10
2023-01-23T09:21:31.835Z,2.55
2023-01-23T09:24:00.240Z,3.08
2023-01-23T09:26:29.702Z,3.58
2023-01-23T09:28:57.709Z,2.67
2023-01-23T09:31:25.774Z,3.38
2023-01-23T09:33:53.699Z,2.88
2023-01-23T09:36:33.720Z,1.90
2023-01-23T09:39:09.909Z,1.98
2023-01-23T09:41:40.799Z,2.53
2023-01-23T09:44:12.753Z,2.92
2023-01-23T09:46:42.580Z,1.95
2023-01-23T09:49:14.133Z,1.85
2023-01-23T09:51:48.565Z,1.90
2023-01-23T09:54:22.658Z,2.10
2023-01-23T09:56:55.579Z,3.00
2023-01-23T09:59:29.294Z,1.98
2023-01-23T10:01:57.747Z,3.17
2023-01-23T10:04:25.929Z,2.55
2023-01-23T10:07:06.641Z,2.67
2023-01-23T10:09:38.592Z,2.38
2023-01-23T10:12:15.772Z,2.22
2023-01-23T10:14:58.815Z,2.88
2023-01-23T10:17:31.658Z,2.67
2023-01-23T10:20:11.418Z,2.25
2023-01-23T10:22:40.665Z,2.40
2023-01-23T10:25:12.957Z,1.70
2023-01-23T10:27:44.050Z,2.80
2023-01-23T10:30:20.501Z,2.53
2023-01-23T10:32:52.407Z,1.83
2023-01-23T10:35:25.390Z,2.15
2023-01-23T10:37:56.847Z,2.65
2023-01-23T10:40:39.608Z,2.83
2023-01-23T10:43:13.959Z,2.75
2023-01-23T10:45:42.206Z,2.58
2023-01-23T10:48:29.425Z,2.17
2023-01-23T10:51:01.786Z,1.85
2023-01-23T10:53:32.369Z,2.20
2023-01-23T10:56:00.841Z,1.55
2023-01-23T10:58:35.388Z,1.83
2023-01-23T11:01:04.351Z,2.33
2023-01-23T11:03:34.689Z,2.38
2023-01-23T11:06:04.492Z,1.80
2023-01-23T11:08:33.516Z,1.92
2023-01-23T11:11:16.348Z,2.17
2023-01-23T11:13:46.440Z,2.65
2023-01-23T11:16:15.813Z,2.10
2023-01-23T11:18:44.487Z,2.10
2023-01-23T11:21:22.244Z,2.53
2023-01-23T11:23:50.183Z,1.77
2023-01-23T11:26:34.359Z,1.70
2023-01-23T11:29:03.873Z,2.30
2023-01-23T11:31:32.247Z,2.20
2023-01-23T11:34:02.613Z,1.63
2023-01-23T11:36:36.272Z,1.88
2023-01-23T11:39:13.335Z,2.08
2023-01-23T11:41:41.569Z,1.20
2023-01-23T11:44:18.424Z,2.15
2023-01-23T11:46:55.665Z,1.67
2023-01-23T11:49:30.989Z,2.03
2023-01-23T11:52:05.704Z,2.38
2023-01-23T11:54:49.080Z,2.30
2023-01-23T11:57:19.688Z,1.48
2023-01-23T11:59:56.181Z,2.25
2023-01-23T12:02:42.772Z,2.40
2023-01-23T12:05:20.615Z,1.85
2023-01-23T12:07:53.443Z,1.70
2023-01-23T12:10:25.239Z,1.50
2023-01-23T12:13:02.602Z,1.17
2023-01-23T12:15:39.184Z,2.78
2023-01-23T12:18:13.488Z,1.70
2023-01-23T12:20:49.379Z,2.35
2023-01-23T12:23:27.381Z,1.92
2023-01-23T12:25:59.886Z,2.10
2023-01-23T12:28:33.769Z,2.38
2023-01-23T12:31:10.924Z,1.45
2023-01-23T12:33:45.277Z,1.38
2023-01-23T12:36:23.421Z,1.85
2023-01-23T12:38:55.886Z,1.33
2023-01-23T12:41:27.968Z,2.58
2023-01-23T12:43:59.619Z,2.25
2023-01-23T12:46:34.164Z,2.42
2023-01-23T12:49:07.152Z,1.67
2023-01-23T12:51:38.029Z,1.73
2023-01-23T12:54:08.927Z,1.95
2023-01-23T12:56:38.752Z,2.20
2023-01-23T12:59:12.687Z,2.05
2023-01-23T13:01:51.791Z,1.80
2023-01-23T13:04:34.055Z,1.50
2023-01-23T13:07:09.739Z,1.50
2023-01-23T13:09:45.962Z,1.80
2023-01-23T13:12:19.762Z,1.48
2023-01-23T13:15:06.863Z,2.35
2023-01-23T13:17:42.917Z,1.80
2023-01-23T13:20:42.461Z,1.70
2023-01-23T13:23:26.907Z,1.70
2023-01-23T13:26:29.269Z,2.67
2023-01-23T13:28:58.707Z,1.88
2023-01-23T13:31:28.898Z,1.75
2023-01-23T13:34:15.106Z,2.22
2023-01-23T13:36:44.064Z,2.80
2023-01-23T13:39:26.928Z,1.80
2023-01-23T13:42:09.991Z,2.05
2023-01-23T13:44:42.001Z,2.08
2023-01-23T14:25:16.319Z,2.42
2023-01-23T14:27:52.915Z,1.80
2023-01-23T14:30:26.780Z,2.17
2023-01-23T14:32:55.583Z,1.77
2023-01-23T14:35:25.401Z,1.63
2023-01-23T14:37:55.302Z,1.67
2023-01-23T14:40:28.223Z,1.15
2023-01-23T14:43:00.049Z,2.47
2023-01-23T14:45:33.311Z,2.53
2023-01-23T14:48:06.679Z,2.60
2023-01-23T14:50:36.295Z,2.10
2023-01-23T14:53:04.839Z,2.47
2023-01-23T14:55:34.461Z,2.55
2023-01-23T14:58:02.801Z,1.92
2023-01-23T15:00:34.210Z,2.95
2023-01-23T15:03:04.499Z,3.42
2023-01-23T15:05:33.030Z,2.40
2023-01-23T15:08:03.266Z,1.77
2023-01-23T15:10:33.534Z,2.13
2023-01-23T15:13:03.282Z,1.88
2023-01-23T15:15:32.821Z,2.70
2023-01-23T15:18:03.385Z,2.17
2023-01-23T15:20:32.728Z,3.08
2023-01-23T15:23:14.726Z,2.22
2023-01-23T15:25:43.030Z,1.73
2023-01-23T15:28:30.496Z,2.40
2023-01-23T15:30:58.791Z,2.15
2023-01-23T15:33:29.953Z,1.80
2023-01-23T15:36:04.636Z,2.55
2023-01-23T15:38:32.781Z,7.30
2023-01-23T15:41:00.809Z,1.88
2023-01-23T15:43:29.102Z,1.38
2023-01-23T15:45:57.472Z,2.05
2023-01-23T15:48:25.276Z,2.28
2023-01-23T15:50:55.634Z,1.13
2023-01-23T15:53:23.641Z,1.58
2023-01-23T15:55:51.937Z,2.17
2023-01-23T15:58:20.016Z,2.50
2023-01-23T16:00:49.880Z,1.38
2023-01-23T16:03:19.417Z,2.35
2023-01-23T16:05:47.500Z,1.30
2023-01-23T16:08:20.078Z,2.33
2023-01-23T16:10:48.376Z,1.30
2023-01-23T16:13:16.367Z,1.40
2023-01-23T16:15:44.389Z,1.40
2023-01-23T16:18:12.449Z,2.58
2023-01-23T16:20:42.045Z,2.08
2023-01-23T16:23:15.383Z,2.25
2023-01-23T16:25:46.351Z,2.53
2023-01-23T16:28:14.559Z,2.33
2023-01-23T16:30:42.790Z,1.70
2023-01-23T16:33:11.110Z,1.50
2023-01-23T16:35:39.170Z,2.03
2023-01-23T16:38:07.431Z,1.85
2023-01-23T16:40:35.878Z,1.67
2023-01-23T16:43:05.644Z,1.65
2023-01-23T16:45:33.685Z,1.77
2023-01-23T16:48:01.705Z,1.20
2023-01-23T16:50:32.982Z,1.33
2023-01-23T16:53:03.129Z,2.38
2023-01-23T16:55:32.592Z,2.33
2023-01-23T16:58:01.621Z,2.03
2023-01-23T17:00:35.281Z,2.58
2023-01-23T17:03:05.920Z,2.38
2023-01-23T17:05:33.920Z,2.35
2023-01-23T17:08:01.892Z,2.55
2023-01-23T17:10:41.200Z,2.40
2023-01-23T17:13:14.675Z,2.00
2023-01-23T17:15:44.388Z,1.70
2023-01-23T17:18:21.051Z,2.60
2023-01-23T17:20:49.222Z,2.80
2023-01-23T17:23:17.299Z,2.78
2023-01-23T17:25:59.874Z,2.33
2023-01-23T17:28:30.063Z,2.88
2023-01-23T17:31:01.559Z,2.40
2023-01-23T17:33:31.743Z,2.97
2023-01-23T17:36:00.145Z,2.92
2023-01-23T17:38:28.996Z,2.65
2023-01-23T17:40:58.064Z,3.20
2023-01-23T17:43:26.397Z,3.58
2023-01-23T17:45:54.853Z,3.95
2023-01-23T17:48:27.293Z,3.95
2023-01-23T17:50:59.829Z,4.40
2023-01-23T17:53:30.685Z,3.90
2023-01-23T17:55:58.402Z,3.63
2023-01-23T17:58:26.532Z,4.43
2023-01-23T18:01:01.526Z,4.80
2023-01-23T18:03:31.420Z,4.13
2023-01-23T18:05:59.267Z,4.00
2023-01-23T18:08:27.778Z,4.53
2023-01-23T18:10:56.915Z,4.10
2023-01-23T18:13:29.275Z,4.30
2023-01-23T18:16:04.574Z,4.07
2023-01-23T18:18:35.168Z,4.20
2023-01-23T18:21:04.537Z,3.70
2023-01-23T18:23:37.204Z,4.22
2023-01-23T18:26:09.756Z,4.82
2023-01-23T18:28:39.970Z,4.93
2023-01-23T18:31:10.701Z,4.65
2023-01-23T18:36:37.256Z,3.83
2023-01-23T18:39:22.025Z,4.20
2023-01-23T18:41:55.673Z,4.35
2023-01-23T18:44:25.636Z,4.53
2023-01-23T18:46:53.486Z,4.18
2023-01-23T18:49:32.436Z,3.97
2023-01-23T18:52:07.574Z,4.38
2023-01-23T18:54:38.817Z,3.75
2023-01-23T18:57:13.787Z,5.25
2023-01-23T18:59:44.103Z,4.00
2023-01-23T19:02:16.486Z,3.75
2023-01-23T19:04:46.654Z,3.60
2023-01-23T19:07:18.346Z,3.83
2023-01-23T19:09:46.622Z,4.13
2023-01-23T19:12:25.309Z,4.03
2023-01-23T19:15:00.226Z,3.72
2023-01-23T19:17:37.115Z,4.18
2023-01-23T19:20:11.621Z,3.38
2023-01-23T19:22:44.180Z,4.18
2023-01-23T19:25:16.708Z,3.90
2023-01-23T19:27:44.572Z,4.53
2023-01-23T19:30:12.848Z,5.07
2023-01-23T19:32:44.088Z,4.80
2023-01-23T19:35:14.319Z,4.32
2023-01-23T19:37:45.257Z,4.28
2023-01-23T19:40:14.281Z,4.80
2023-01-23T19:42:52.487Z,4.85
2023-01-23T19:45:26.544Z,5.03
2023-01-23T19:47:54.418Z,4.78
2023-01-23T19:50:22.698Z,3.53
2023-01-23T19:52:52.444Z,4.30
2023-01-23T19:55:24.811Z,4.90
2023-01-23T19:57:52.903Z,4.88
2023-01-23T20:00:21.310Z,4.35
2023-01-23T20:02:49.217Z,2.70
2023-01-23T20:05:17.028Z,1.83
2023-01-23T20:07:44.790Z,2.00
2023-01-23T20:10:14.132Z,1.98
2023-01-23T20:12:42.778Z,2.60
2023-01-23T20:15:11.857Z,2.22
2023-01-23T20:17:39.756Z,2.25
2023-01-23T20:20:09.561Z,2.58
2023-01-23T20:22:37.394Z,1.70
2023-01-23T20:25:05.704Z,1.60
2023-01-23T20:27:35.225Z,2.70
2023-01-23T20:30:03.595Z,2.25
2023-01-23T20:32:32.045Z,2.10
2023-01-23T20:34:59.748Z,2.42
2023-01-23T20:37:27.913Z,2.03
2023-01-23T20:39:55.748Z,2.30
2023-01-23T20:42:23.556Z,2.50
2023-01-23T20:44:52.632Z,2.05
2023-01-23T20:47:20.336Z,2.20
2023-01-23T20:49:48.058Z,2.40
2023-01-23T20:52:33.419Z,1.55
2023-01-23T20:55:01.130Z,2.22
2023-01-23T20:57:49.081Z,1.80
2023-01-23T21:00:17.929Z,2.53
2023-01-23T21:02:45.643Z,2.60
2023-01-23T21:05:13.463Z,1.60
2023-01-23T21:07:41.234Z,1.67
2023-01-23T21:10:09.380Z,1.88
2023-01-23T21:12:37.421Z,1.80
2023-01-23T21:15:05.438Z,2.03
2023-01-23T21:17:34.461Z,2.38
2023-01-23T21:20:02.206Z,2.40
2023-01-23T21:22:29.926Z,3.10
2023-01-23T21:24:57.633Z,2.83
2023-01-23T21:27:26.094Z,2.47
2023-01-23T21:29:53.850Z,2.85
2023-01-23T21:32:21.968Z,3.10
2023-01-23T21:34:51.573Z,2.33
2023-01-23T21:37:19.342Z,2.35
2023-01-23T21:39:47.208Z,2.25
2023-01-23T21:42:14.995Z,2.05
2023-01-23T21:44:42.778Z,2.38
2023-01-23T21:47:10.497Z,1.92
2023-01-23T21:49:38.260Z,2.53
2023-01-23T21:52:07.792Z,2.13
2023-01-23T21:54:35.519Z,1.33
2023-01-23T21:57:03.214Z,2.38
2023-01-23T21:59:30.841Z,2.20
2023-01-23T22:01:57.530Z,2.00
2023-01-23T22:04:25.779Z,3.20
2023-01-23T22:06:55.370Z,1.70
2023-01-23T22:09:25.685Z,2.17
2023-01-23T22:11:53.463Z,2.78
2023-01-23T22:14:21.196Z,2.47
2023-01-23T22:16:50.907Z,2.53
2023-01-23T22:19:22.520Z,2.63
2023-01-23T22:21:52.165Z,2.95
2023-01-23T22:24:20.070Z,2.20
2023-01-23T22:26:49.377Z,1.75
2023-01-23T22:29:17.188Z,2.42
2023-01-23T22:31:45.068Z,2.25
2023-01-23T22:34:12.832Z,1.83
2023-01-23T22:36:40.457Z,1.75
2023-01-23T22:39:08.080Z,1.90
2023-01-23T22:41:35.753Z,1.77
2023-01-23T22:44:04.823Z,2.40
2023-01-23T22:46:33.056Z,2.72
2023-01-23T22:49:00.924Z,2.50
2023-01-23T22:51:29.179Z,2.03
2023-01-23T22:53:57.491Z,2.35
2023-01-23T22:56:26.223Z,2.35
2023-01-23T22:58:54.765Z,3.33
2023-01-23T23:01:24.770Z,1.80
2023-01-23T23:03:52.581Z,2.03
2023-01-23T23:06:20.729Z,1.50
2023-01-23T23:08:48.607Z,2.10
2023-01-23T23:11:17.719Z,2.45
2023-01-23T23:13:45.385Z,1.90
2023-01-23T23:16:14.743Z,1.95
2023-01-23T23:18:43.972Z,1.88
2023-01-23T23:21:12.343Z,2.50
2023-01-23T23:23:40.355Z,1.50
2023-01-23T23:26:09.015Z,2.35
2023-01-23T23:28:37.099Z,1.02
2023-01-23T23:31:04.977Z,1.90
2023-01-23T23:33:32.686Z,2.22
2023-01-23T23:36:01.674Z,2.05
2023-01-23T23:38:29.319Z,2.10
2023-01-23T23:40:57.578Z,1.80
2023-01-23T23:43:25.728Z,2.60
2023-01-23T23:45:53.865Z,2.28
2023-01-23T23:48:21.465Z,1.73
2023-01-23T23:50:49.021Z,1.95
2023-01-23T23:53:17.999Z,2.13
2023-01-23T23:55:45.688Z,2.30
2023-01-23T23:58:13.698Z,2.45
